createdAt,value
2017-11-27T00:00:34.984Z,94561.48
2017-11-27T00:03:02.364Z,94557.32
2017-11-27T00:05:29.790Z,94554.69
2017-11-27T00:07:57.165Z,94561.30
2017-11-27T00:10:24.658Z,94572.46
2017-11-27T00:12:52.036Z,94570.59
2017-11-27T00:15:19.429Z,94573.44
2017-11-27T00:17:46.865Z,94564.36
2017-11-27T00:20:14.240Z,94565.30
2017-11-27T00:22:41.612Z,94564.74
2017-11-27T00:25:09.024Z,94563.43
2017-11-27T00:27:36.407Z,94561.55
2017-11-27T00:30:03.820Z,94558.91
2017-11-27T00:32:31.196Z,94570.80
2017-11-27T00:34:58.729Z,94569.68
2017-11-27T00:37:26.104Z,94570.06
2017-11-27T00:39:53.482Z,94571.93
2017-11-27T00:42:20.896Z,94576.87
2017-11-27T00:44:48.280Z,94570.66
2017-11-27T00:47:15.697Z,94569.73
2017-11-27T00:49:43.150Z,94573.87
2017-11-27T00:52:10.548Z,94565.61
2017-11-27T00:54:37.932Z,94583.89
2017-11-27T00:57:05.350Z,94587.48
2017-11-27T00:59:32.760Z,94582.98
2017-11-27T01:02:00.160Z,94582.59
2017-11-27T01:04:27.642Z,94588.27
2017-11-27T01:06:55.060Z,94592.05
2017-11-27T01:09:22.473Z,94589.58
2017-11-27T01:11:49.873Z,94593.15
2017-11-27T01:14:17.367Z,94583.89
2017-11-27T01:16:44.799Z,94594.31
2017-11-27T01:19:12.183Z,94596.37
2017-11-27T01:21:39.601Z,94602.05
2017-11-27T01:24:07.009Z,94599.61
2017-11-27T01:26:34.397Z,94603.20
2017-11-27T01:29:01.810Z,94619.84
2017-11-27T01:31:29.178Z,94615.48
2017-11-27T01:33:56.603Z,94621.70
2017-11-27T01:36:24.036Z,94620.00
2017-11-27T01:38:51.448Z,94623.98
2017-11-27T01:41:18.877Z,94634.16
2017-11-27T01:43:46.293Z,94636.82
2017-11-27T01:46:13.661Z,94642.70
2017-11-27T01:48:41.071Z,94648.34
2017-11-27T01:51:08.492Z,94645.36
2017-11-27T01:53:35.916Z,94641.77
2017-11-27T01:56:03.264Z,94650.05
2017-11-27T01:58:30.700Z,94653.63
2017-11-27T02:00:58.078Z,94653.46
2017-11-27T02:03:25.483Z,94645.91
2017-11-27T02:05:52.890Z,94659.36
2017-11-27T02:08:20.300Z,94661.25
2017-11-27T02:10:47.727Z,94670.50
2017-11-27T02:13:15.108Z,94669.55
2017-11-27T02:15:42.561Z,94669.94
2017-11-27T02:18:09.941Z,94664.66
2017-11-27T02:20:37.345Z,94673.36
2017-11-27T02:23:04.764Z,94673.36
2017-11-27T02:25:32.196Z,94676.01
2017-11-27T02:27:59.568Z,94684.12
2017-11-27T02:30:26.965Z,94688.09
2017-11-27T02:32:54.379Z,94688.86
2017-11-27T02:35:21.749Z,94679.05
2017-11-27T02:37:49.176Z,94672.23
2017-11-27T02:40:16.556Z,94678.30
2017-11-27T02:42:43.962Z,94689.85
2017-11-27T02:45:11.377Z,94687.23
2017-11-27T02:47:38.748Z,94681.56
2017-11-27T02:50:06.207Z,94684.42
2017-11-27T02:52:33.622Z,94684.97
2017-11-27T02:55:01.044Z,94681.94
2017-11-27T02:57:28.471Z,94683.82
2017-11-27T02:59:55.841Z,94687.23
2017-11-27T03:02:23.258Z,94688.37
2017-11-27T03:04:50.648Z,94692.31
2017-11-27T03:07:18.070Z,94694.22
2017-11-27T03:09:45.447Z,94695.77
2017-11-27T03:12:12.871Z,94699.92
2017-11-27T03:14:40.261Z,94701.23
2017-11-27T03:17:07.658Z,94699.57
2017-11-27T03:19:35.054Z,94704.86
2017-11-27T03:22:02.461Z,94695.77
2017-11-27T03:24:29.821Z,94698.64
2017-11-27T03:26:57.164Z,94695.81
2017-11-27T03:29:24.569Z,94695.98
2017-11-27T03:31:51.972Z,94686.56
2017-11-27T03:34:19.405Z,94693.72
2017-11-27T03:36:46.753Z,94692.39
2017-11-27T03:39:14.179Z,94685.03
2017-11-27T03:41:41.536Z,94686.73
2017-11-27T03:44:08.936Z,94690.72
2017-11-27T03:46:36.344Z,94688.30
2017-11-27T03:49:03.724Z,94686.05
2017-11-27T03:51:31.104Z,94680.59
2017-11-27T03:53:58.485Z,94684.56
2017-11-27T03:56:25.904Z,94681.37
2017-11-27T03:58:53.253Z,94691.56
2017-11-27T04:01:20.706Z,94694.20
2017-11-27T04:03:48.095Z,94684.33
2017-11-27T04:06:15.494Z,94692.98
2017-11-27T04:08:42.851Z,94694.28
2017-11-27T04:11:10.229Z,94687.06
2017-11-27T04:13:37.650Z,94683.58
2017-11-27T04:16:05.044Z,94684.66
2017-11-27T04:18:32.448Z,94682.16
2017-11-27T04:20:59.901Z,94677.39
2017-11-27T04:23:27.243Z,94679.03
2017-11-27T04:25:54.658Z,94675.22
2017-11-27T04:28:22.084Z,94671.95
2017-11-27T04:30:49.513Z,94668.51
2017-11-27T04:33:16.941Z,94680.18
2017-11-27T04:35:44.398Z,94676.19
2017-11-27T04:38:11.879Z,94679.77
2017-11-27T04:40:39.313Z,94681.95
2017-11-27T04:43:06.753Z,94680.60
2017-11-27T04:45:34.180Z,94680.37
2017-11-27T04:48:01.574Z,94685.42
2017-11-27T04:50:28.970Z,94691.08
2017-11-27T04:52:56.384Z,94688.80
2017-11-27T04:55:23.813Z,94690.67
2017-11-27T04:57:51.198Z,94686.67
2017-11-27T05:00:18.659Z,94696.86
2017-11-27T05:02:46.054Z,94692.70
2017-11-27T05:05:13.460Z,94699.12
2017-11-27T05:07:40.874Z,94698.92
2017-11-27T05:10:08.270Z,94695.64
2017-11-27T05:12:35.700Z,94700.16
2017-11-27T05:15:03.113Z,94701.48
2017-11-27T05:17:30.509Z,94701.81
2017-11-27T05:19:57.933Z,94703.13
2017-11-27T05:22:25.378Z,94707.45
2017-11-27T05:24:52.801Z,94711.41
2017-11-27T05:27:20.277Z,94707.06
2017-11-27T05:29:47.688Z,94715.55
2017-11-27T05:32:15.116Z,94712.13
2017-11-27T05:34:42.508Z,94716.48
2017-11-27T05:37:09.917Z,94721.40
2017-11-27T05:39:37.350Z,94717.95
2017-11-27T05:42:04.763Z,94717.38
2017-11-27T05:44:32.206Z,94720.58
2017-11-27T05:46:59.590Z,94727.92
2017-11-27T05:49:26.987Z,94732.67
2017-11-27T05:51:54.421Z,94731.19
2017-11-27T05:54:21.821Z,94733.48
2017-11-27T05:56:49.312Z,94735.42
2017-11-27T05:59:16.712Z,94739.60
2017-11-27T06:01:44.195Z,94739.02
2017-11-27T06:04:11.642Z,94740.18
2017-11-27T06:06:39.102Z,94734.32
2017-11-27T06:09:06.496Z,94736.77
2017-11-27T06:11:33.943Z,94736.04
2017-11-27T06:14:02.208Z,94737.38
2017-11-27T06:16:29.663Z,94738.48
2017-11-27T06:18:57.158Z,94734.72
2017-11-27T06:21:25.669Z,94730.36
2017-11-27T06:23:53.696Z,94739.25
2017-11-27T06:26:21.182Z,94739.81
2017-11-27T06:28:48.680Z,94738.48
2017-11-27T06:31:16.060Z,94739.25
2017-11-27T06:33:43.471Z,94733.59
2017-11-27T06:36:10.922Z,94739.27
2017-11-27T06:38:38.379Z,94738.14
2017-11-27T06:41:05.777Z,94737.53
2017-11-27T06:43:33.225Z,94730.19
2017-11-27T06:46:00.595Z,94736.59
2017-11-27T06:48:28.022Z,94735.28
2017-11-27T06:50:55.434Z,94736.59
2017-11-27T06:53:22.810Z,94744.70
2017-11-27T06:55:50.268Z,94734.11
2017-11-27T06:58:17.646Z,94744.14
2017-11-27T07:00:45.095Z,94743.18
2017-11-27T07:03:12.544Z,94746.58
2017-11-27T07:05:39.932Z,94747.88
2017-11-27T07:08:07.440Z,94747.70
2017-11-27T07:10:34.905Z,94750.55
2017-11-27T07:13:02.304Z,94756.20
2017-11-27T07:15:29.798Z,94758.16
2017-11-27T07:17:57.323Z,94761.12
2017-11-27T07:20:25.436Z,94764.31
2017-11-27T07:22:52.854Z,94764.66
2017-11-27T07:25:20.352Z,94761.44
2017-11-27T07:27:48.901Z,94761.63
2017-11-27T07:30:18.454Z,94765.39
2017-11-27T07:32:48.037Z,94760.11
2017-11-27T07:35:16.173Z,94766.69
2017-11-27T07:37:43.584Z,94759.52
2017-11-27T07:40:11.068Z,94763.24
2017-11-27T07:42:38.521Z,94760.77
2017-11-27T07:47:28.677Z,94763.40
2017-11-27T07:49:57.159Z,94766.35
2017-11-27T07:52:24.751Z,94749.22
2017-11-27T07:54:52.308Z,94764.39
2017-11-27T07:57:22.651Z,94757.06
2017-11-27T07:59:50.385Z,94764.39
2017-11-27T08:02:18.082Z,94773.59
2017-11-27T08:04:47.827Z,94752.06
2017-11-27T08:07:15.464Z,94766.36
2017-11-27T08:09:43.133Z,94765.11
2017-11-27T08:12:13.445Z,94775.65
2017-11-27T08:14:42.140Z,94764.34
2017-11-27T08:17:09.597Z,94764.32
2017-11-27T08:19:37.132Z,94755.86
2017-11-27T08:22:04.863Z,94774.46
2017-11-27T08:24:32.416Z,94761.27
2017-11-27T08:27:00.343Z,94766.09
2017-11-27T08:29:27.931Z,94769.12
2017-11-27T08:31:55.594Z,94762.83
2017-11-27T08:34:23.309Z,94741.73
2017-11-27T08:36:50.798Z,94753.53
2017-11-27T08:39:18.213Z,94747.52
2017-11-27T08:41:45.927Z,94750.89
2017-11-27T08:44:13.336Z,94751.61
2017-11-27T08:46:40.872Z,94755.91
2017-11-27T08:49:09.021Z,94741.36
2017-11-27T08:51:36.889Z,94746.42
2017-11-27T08:54:04.659Z,94750.39
2017-11-27T08:56:32.167Z,94746.63
2017-11-27T08:58:59.662Z,94746.25
2017-11-27T09:01:27.161Z,94733.22
2017-11-27T09:03:54.667Z,94740.91
2017-11-27T09:06:22.296Z,94724.33
2017-11-27T09:08:49.937Z,94730.31
2017-11-27T09:11:19.783Z,94734.09
2017-11-27T09:13:47.479Z,94726.91
2017-11-27T09:16:16.566Z,94722.16
2017-11-27T09:18:45.300Z,94735.21
2017-11-27T09:21:13.179Z,94720.29
2017-11-27T09:23:40.850Z,94715.66
2017-11-27T09:26:08.327Z,94721.25
2017-11-27T09:28:35.873Z,94716.56
2017-11-27T09:31:03.849Z,94703.97
2017-11-27T09:33:32.577Z,94696.77
2017-11-27T09:36:00.171Z,94694.81
2017-11-27T09:38:27.941Z,94704.02
2017-11-27T09:40:55.521Z,94680.35
2017-11-27T09:43:23.188Z,94697.59
2017-11-27T09:45:51.250Z,94687.56
2017-11-27T09:48:19.437Z,94675.70
2017-11-27T09:50:47.102Z,94691.24
2017-11-27T09:53:14.852Z,94677.23
2017-11-27T09:55:42.757Z,94679.47
2017-11-27T09:58:10.582Z,94667.11
2017-11-27T10:00:39.015Z,94668.02
2017-11-27T10:03:06.485Z,94674.41
2017-11-27T10:05:34.362Z,94664.02
2017-11-27T10:08:02.488Z,94664.89
2017-11-27T10:10:31.178Z,94656.67
2017-11-27T10:12:58.879Z,94655.73
2017-11-27T10:15:26.761Z,94641.24
2017-11-27T10:17:55.371Z,94655.82
2017-11-27T10:20:23.261Z,94639.66
2017-11-27T10:22:50.970Z,94641.55
2017-11-27T10:25:18.571Z,94649.03
2017-11-27T10:27:46.034Z,94635.27
2017-11-27T10:30:13.516Z,94644.83
2017-11-27T10:32:40.982Z,94645.97
2017-11-27T10:35:08.691Z,94634.09
2017-11-27T10:37:36.123Z,94636.50
2017-11-27T10:40:04.610Z,94629.30
2017-11-27T10:42:32.484Z,94626.10
2017-11-27T10:45:00.042Z,94627.57
2017-11-27T10:47:27.673Z,94618.17
2017-11-27T10:49:55.604Z,94616.04
2017-11-27T10:52:23.742Z,94609.36
2017-11-27T10:54:53.772Z,94603.52
2017-11-27T10:57:21.798Z,94601.95
2017-11-27T10:59:49.942Z,94590.60
2017-11-27T11:02:17.558Z,94600.62
2017-11-27T11:04:45.369Z,94594.28
2017-11-27T11:07:13.207Z,94593.72
2017-11-27T11:09:40.715Z,94598.16
2017-11-27T11:12:09.786Z,94591.45
2017-11-27T11:14:37.534Z,94591.04
2017-11-27T11:17:08.904Z,94596.11
2017-11-27T11:19:36.767Z,94588.77
2017-11-27T11:22:04.452Z,94580.13
2017-11-27T11:24:32.034Z,94590.39
2017-11-27T11:26:59.497Z,94589.83
2017-11-27T11:29:27.002Z,94585.71
2017-11-27T11:31:55.581Z,94589.58
2017-11-27T11:34:23.140Z,94596.30
2017-11-27T11:36:52.119Z,94581.33
2017-11-27T11:39:20.342Z,94593.83
2017-11-27T11:41:49.373Z,94576.18
2017-11-27T11:44:17.029Z,94588.83
2017-11-27T11:46:45.043Z,94602.49
2017-11-27T11:49:12.897Z,94594.62
2017-11-27T11:51:40.471Z,94593.29
2017-11-27T11:54:08.443Z,94588.95
2017-11-27T11:56:36.191Z,94584.92
2017-11-27T11:59:03.678Z,94589.28
2017-11-27T12:01:34.011Z,94589.83
2017-11-27T12:04:02.831Z,94581.86
2017-11-27T12:06:30.458Z,94577.59
2017-11-27T12:08:58.497Z,94569.95
2017-11-27T12:13:59.429Z,94575.58
2017-11-27T12:16:27.214Z,94560.50
2017-11-27T12:18:54.717Z,94565.89
2017-11-27T12:21:22.201Z,94553.11
2017-11-27T12:23:49.974Z,94554.03
2017-11-27T12:26:17.839Z,94545.34
2017-11-27T12:28:45.511Z,94553.19
2017-11-27T12:31:15.355Z,94556.48
2017-11-27T12:33:43.113Z,94545.48
2017-11-27T12:36:10.651Z,94559.14
2017-11-27T12:38:38.184Z,94551.43
2017-11-27T12:41:05.608Z,94547.26
2017-11-27T12:43:33.169Z,94552.67
2017-11-27T12:46:00.771Z,94547.45
2017-11-27T12:48:28.415Z,94548.40
2017-11-27T12:50:56.137Z,94546.13
2017-11-27T12:53:25.318Z,94553.78
2017-11-27T12:55:53.577Z,94551.41
2017-11-27T12:58:22.323Z,94553.45
2017-11-27T13:00:50.351Z,94552.54
2017-11-27T13:03:18.165Z,94560.82
2017-11-27T13:05:45.941Z,94552.67
2017-11-27T13:08:13.747Z,94554.00
2017-11-27T13:10:41.698Z,94549.19
2017-11-27T13:13:09.700Z,94549.72
2017-11-27T13:15:37.548Z,94558.58
2017-11-27T13:18:05.583Z,94556.89
2017-11-27T13:20:35.198Z,94559.41
2017-11-27T13:23:05.167Z,94564.02
2017-11-27T13:25:34.296Z,94573.14
2017-11-27T13:28:02.439Z,94564.77
2017-11-27T13:30:31.030Z,94565.59
2017-11-27T13:32:59.559Z,94564.70
2017-11-27T13:35:27.790Z,94565.02
2017-11-27T13:37:55.625Z,94571.08
2017-11-27T13:40:23.292Z,94574.87
2017-11-27T13:42:52.290Z,94571.55
2017-11-27T13:45:20.398Z,94583.78
2017-11-27T13:47:49.287Z,94579.96
2017-11-27T13:50:17.693Z,94586.35
2017-11-27T13:52:46.093Z,94585.78
2017-11-27T13:55:15.610Z,94583.27
2017-11-27T13:57:43.833Z,94572.03
2017-11-27T14:00:19.284Z,94577.69
2017-11-27T14:02:47.914Z,94577.15
2017-11-27T14:05:16.225Z,94583.54
2017-11-27T14:07:44.852Z,94572.33
2017-11-27T14:10:12.883Z,94577.25
2017-11-27T14:12:40.320Z,94569.83
2017-11-27T14:15:08.201Z,94571.92
2017-11-27T14:17:35.948Z,94571.64
2017-11-27T14:20:04.072Z,94573.56
2017-11-27T14:22:34.493Z,94574.89
2017-11-27T14:25:18.431Z,94579.55
2017-11-27T14:27:50.088Z,94575.94
2017-11-27T14:30:18.959Z,94567.98
2017-11-27T14:32:46.746Z,94562.70
2017-11-27T14:35:15.158Z,94577.62
2017-11-27T14:37:43.089Z,94564.44
2017-11-27T14:40:13.374Z,94573.39
2017-11-27T14:42:41.545Z,94566.47
2017-11-27T14:45:09.070Z,94562.08
2017-11-27T14:47:36.766Z,94553.77
2017-11-27T14:50:04.448Z,94555.98
2017-11-27T14:52:32.182Z,94557.27
2017-11-27T14:55:00.291Z,94549.05
2017-11-27T14:57:27.893Z,94559.36
2017-11-27T14:59:55.567Z,94550.54
2017-11-27T15:02:23.140Z,94557.02
2017-11-27T15:04:51.921Z,94551.97
2017-11-27T15:09:52.917Z,94555.86
2017-11-27T15:12:32.802Z,94550.42
2017-11-27T15:15:00.309Z,94558.11
2017-11-27T15:17:27.914Z,94553.64
2017-11-27T15:19:55.470Z,94557.97
2017-11-27T15:22:24.128Z,94550.54
2017-11-27T15:24:51.760Z,94548.58
2017-11-27T15:27:19.423Z,94563.55
2017-11-27T15:29:47.439Z,94558.11
2017-11-27T15:32:14.872Z,94560.82
2017-11-27T15:34:42.999Z,94563.35
2017-11-27T15:37:10.525Z,94563.79
2017-11-27T15:39:38.021Z,94561.89
2017-11-27T15:42:05.537Z,94564.27
2017-11-27T15:44:33.996Z,94575.67
2017-11-27T15:47:02.242Z,94585.72
2017-11-27T15:49:30.443Z,94580.66
2017-11-27T15:51:57.980Z,94581.25
2017-11-27T15:54:25.943Z,94578.00
2017-11-27T15:56:54.410Z,94581.09
2017-11-27T15:59:21.864Z,94578.62
2017-11-27T16:01:49.807Z,94574.64
2017-11-27T16:04:17.353Z,94562.12
2017-11-27T16:06:44.844Z,94567.37
2017-11-27T16:09:12.288Z,94567.50
2017-11-27T16:11:39.776Z,94574.13
2017-11-27T16:14:07.303Z,94563.02
2017-11-27T16:16:34.838Z,94577.03
2017-11-27T16:19:08.404Z,94577.69
2017-11-27T16:21:35.905Z,94562.09
2017-11-27T16:24:03.523Z,94576.20
2017-11-27T16:26:31.353Z,94574.87
2017-11-27T16:28:59.575Z,94575.50
2017-11-27T16:31:27.063Z,94575.69
2017-11-27T16:33:55.015Z,94580.27
2017-11-27T16:36:22.750Z,94580.80
2017-11-27T16:38:50.284Z,94572.33
2017-11-27T16:41:17.898Z,94571.09
2017-11-27T16:43:46.000Z,94577.31
2017-11-27T16:46:13.453Z,94575.47
2017-11-27T16:48:40.832Z,94577.02
2017-11-27T16:51:08.334Z,94577.59
2017-11-27T16:53:37.445Z,94585.47
2017-11-27T16:56:05.014Z,94587.17
2017-11-27T16:58:32.428Z,94589.45
2017-11-27T17:00:59.886Z,94584.41
2017-11-27T17:03:27.319Z,94594.42
2017-11-27T17:05:54.760Z,94589.17
2017-11-27T17:08:22.273Z,94592.07
2017-11-27T17:10:50.304Z,94583.63
2017-11-27T17:13:17.904Z,94587.20
2017-11-27T17:15:45.460Z,94598.38
2017-11-27T17:18:12.902Z,94593.86
2017-11-27T17:20:40.342Z,94590.85
2017-11-27T17:23:07.816Z,94594.12
2017-11-27T17:25:35.431Z,94599.56
2017-11-27T17:28:02.984Z,94598.67
2017-11-27T17:30:30.631Z,94600.64
2017-11-27T17:32:58.036Z,94596.27
2017-11-27T17:35:25.509Z,94595.84
2017-11-27T17:37:52.865Z,94603.70
2017-11-27T17:40:20.305Z,94605.84
2017-11-27T17:42:47.733Z,94600.94
2017-11-27T17:45:15.145Z,94602.91
2017-11-27T17:47:42.556Z,94605.53
2017-11-27T17:50:10.113Z,94593.03
2017-11-27T17:52:37.922Z,94598.39
2017-11-27T17:55:05.470Z,94600.66
2017-11-27T17:57:32.858Z,94600.69
2017-11-27T18:00:00.345Z,94593.70
2017-11-27T18:02:27.716Z,94588.61
2017-11-27T18:04:55.136Z,94593.84
2017-11-27T18:07:22.752Z,94589.70
2017-11-27T18:09:50.300Z,94590.97
2017-11-27T18:12:17.702Z,94591.11
2017-11-27T18:14:45.079Z,94581.45
2017-11-27T18:17:12.469Z,94586.19
2017-11-27T18:19:39.922Z,94585.78
2017-11-27T18:22:07.312Z,94588.05
2017-11-27T18:24:36.277Z,94578.55
2017-11-27T18:27:03.619Z,94575.28
2017-11-27T18:29:31.076Z,94580.67
2017-11-27T18:31:58.445Z,94589.76
2017-11-27T18:34:25.885Z,94583.70
2017-11-27T18:36:53.242Z,94582.80
2017-11-27T18:39:20.760Z,94592.81
2017-11-27T18:41:48.528Z,94590.73
2017-11-27T18:44:16.162Z,94580.16
2017-11-27T18:49:17.070Z,94570.10
2017-11-27T18:51:44.476Z,94590.03
2017-11-27T18:54:12.052Z,94598.01
2017-11-27T18:56:39.451Z,94590.43
2017-11-27T18:59:06.801Z,94590.97
2017-11-27T19:01:34.204Z,94587.19
2017-11-27T19:04:01.599Z,94589.30
2017-11-27T19:06:29.461Z,94599.36
2017-11-27T19:08:57.016Z,94587.05
2017-11-27T19:11:24.431Z,94587.31
2017-11-27T19:13:51.966Z,94591.72
2017-11-27T19:16:19.365Z,94586.91
2017-11-27T19:18:46.849Z,94601.36
2017-11-27T19:21:14.231Z,94605.20
2017-11-27T19:23:41.643Z,94600.73
2017-11-27T19:26:09.040Z,94604.21
2017-11-27T19:28:36.489Z,94605.09
2017-11-27T19:31:07.031Z,94602.17
2017-11-27T19:33:34.484Z,94607.67
2017-11-27T19:36:01.912Z,94604.87
2017-11-27T19:38:29.265Z,94606.66
2017-11-27T19:40:56.649Z,94607.89
2017-11-27T19:43:23.996Z,94608.86
2017-11-27T19:45:51.485Z,94609.49
2017-11-27T19:48:19.172Z,94608.02
2017-11-27T19:50:46.577Z,94608.84
2017-11-27T19:53:14.032Z,94604.72
2017-11-27T19:55:41.441Z,94605.16
2017-11-27T19:58:08.888Z,94608.58
2017-11-27T20:00:36.337Z,94602.21
2017-11-27T20:03:03.867Z,94608.69
2017-11-27T20:05:31.342Z,94598.51
2017-11-27T20:07:59.001Z,94600.23
2017-11-27T20:10:26.364Z,94599.14
2017-11-27T20:12:53.713Z,94607.28
2017-11-27T20:15:21.184Z,94602.98
2017-11-27T20:17:48.640Z,94613.95
2017-11-27T20:20:16.038Z,94604.77
2017-11-27T20:22:43.392Z,94607.21
2017-11-27T20:25:11.045Z,94608.77
2017-11-27T20:27:38.498Z,94607.10
2017-11-27T20:30:06.393Z,94604.87
2017-11-27T20:32:33.793Z,94602.41
2017-11-27T20:35:01.164Z,94597.58
2017-11-27T20:37:28.582Z,94605.67
2017-11-27T20:39:55.949Z,94608.93
2017-11-27T20:42:23.308Z,94612.00
2017-11-27T20:44:50.717Z,94617.48
2017-11-27T20:47:18.156Z,94609.75
2017-11-27T20:49:45.557Z,94618.84
2017-11-27T20:52:13.091Z,94612.28
2017-11-27T20:54:40.516Z,94623.22
2017-11-27T20:57:07.872Z,94622.48
2017-11-27T20:59:35.268Z,94626.44
2017-11-27T21:02:02.688Z,94624.41
2017-11-27T21:04:30.099Z,94625.38
2017-11-27T21:06:57.481Z,94625.02
2017-11-27T21:09:24.964Z,94619.61
2017-11-27T21:11:52.857Z,94629.78
2017-11-27T21:14:20.512Z,94627.52
2017-11-27T21:16:47.925Z,94636.98
2017-11-27T21:19:15.313Z,94627.00
2017-11-27T21:21:42.716Z,94636.26
2017-11-27T21:24:10.101Z,94626.07
2017-11-27T21:26:37.452Z,94622.67
2017-11-27T21:29:05.121Z,94615.19
2017-11-27T21:31:32.597Z,94616.68
2017-11-27T21:33:59.968Z,94618.56
2017-11-27T21:36:27.740Z,94616.70
2017-11-27T21:38:55.117Z,94615.41
2017-11-27T21:41:22.525Z,94620.32
2017-11-27T21:43:51.506Z,94613.34
2017-11-27T21:46:19.022Z,94610.33
2017-11-27T21:48:46.465Z,94600.97
2017-11-27T21:51:14.308Z,94605.09
2017-11-27T21:53:41.663Z,94617.38
2017-11-27T21:56:09.088Z,94615.30
2017-11-27T21:58:36.590Z,94622.13
2017-11-27T22:01:04.000Z,94617.79
2017-11-27T22:03:31.357Z,94614.39
2017-11-27T22:05:58.777Z,94614.77
2017-11-27T22:08:26.212Z,94608.52
2017-11-27T22:10:54.014Z,94608.91
2017-11-27T22:13:21.476Z,94608.92
2017-11-27T22:15:48.883Z,94610.06
2017-11-27T22:18:16.333Z,94604.41
2017-11-27T22:20:43.733Z,94611.78
2017-11-27T22:23:11.107Z,94605.00
2017-11-27T22:25:38.724Z,94600.84
2017-11-27T22:28:06.164Z,94606.34
2017-11-27T22:30:33.529Z,94599.19
2017-11-27T22:33:00.962Z,94590.36
2017-11-27T22:35:28.305Z,94596.56
2017-11-27T22:37:55.728Z,94596.80
2017-11-27T22:40:23.086Z,94599.03
2017-11-27T22:42:50.476Z,94598.48
2017-11-27T22:45:17.953Z,94593.97
2017-11-27T22:47:45.364Z,94597.19
2017-11-27T22:50:12.794Z,94594.75
2017-11-27T22:52:40.213Z,94590.20
2017-11-27T22:55:07.644Z,94595.69
2017-11-27T22:57:35.086Z,94590.64
2017-11-27T23:00:02.631Z,94587.83
2017-11-27T23:02:30.228Z,94588.73
2017-11-27T23:04:58.659Z,94586.52
2017-11-27T23:07:26.036Z,94591.03
2017-11-27T23:09:53.428Z,94585.38
2017-11-27T23:12:20.813Z,94583.66
2017-11-27T23:14:48.333Z,94587.63
2017-11-27T23:17:15.686Z,94588.41
2017-11-27T23:19:43.097Z,94573.89
2017-11-27T23:22:10.748Z,94581.25
2017-11-27T23:24:38.109Z,94577.50
2017-11-27T23:27:05.504Z,94580.70
2017-11-27T23:29:33.089Z,94586.16
2017-11-27T23:32:00.440Z,94575.11
2017-11-27T23:34:27.818Z,94587.31
2017-11-27T23:36:55.314Z,94593.20
2017-11-27T23:39:22.662Z,94580.95
2017-11-27T23:41:50.117Z,94584.15
2017-11-27T23:44:18.101Z,94592.06
2017-11-27T23:46:45.484Z,94595.09
2017-11-27T23:49:12.952Z,94584.36
2017-11-27T23:51:40.328Z,94588.34
2017-11-27T23:54:07.919Z,94597.20
2017-11-27T23:56:35.317Z,94590.25
2017-11-27T23:59:02.725Z,94594.60
